Ellendale, Pennsylvania
Current Conditions -  °F | °C
As of 7:56 PM on Sunday 23 Nov 2014 (Local Time) from KCXY Reporting Station
Overcast Overcast  
Wind Chill: 43°   Ceiling: 4600
Heat Index: 47°   Visibility: 10mi
Dew Point: 28°   Wind: 9mph
Humidity: 48%   Direction: 90°E
Pressure: 30.02"   Gusts: NA
Location:  40.4076°N, 76.8769°W
Report Text: KCXY 240056Z 09008KT 10SM OVC046 08/M02 A3002 RMK AO2 SLP167 T00831022
Loading
Personal Weather Stations






























Interactive Weather Map New forecast layout! Learn more

10-Day Weather Forecast

Advertisements
Track Severe Weather on mobile